Time;durP1;ratioP1;P1;durP2;ratioP2;P2;SDS_P1;SDS_P2;PMS_P1;PMS_P2;Temp;Humidity;BMP_temperature;BMP_pressure;BME280_temperature;BME280_humidity;BME280_pressure;Samples;Min_cycle;Max_cycle;Signal;HPM_P1;HPM_P2
2023/02/01 00:01:54;;;;;;;6.82;3.83;;;9.70;99.90;;;;;;5049580;28;20260;-77
2023/02/01 00:04:20;;;;;;;14.43;7.70;;;9.70;99.90;;;;;;5051191;28;20187;-77
2023/02/01 00:06:46;;;;;;;19.60;9.17;;;9.70;99.90;;;;;;5049999;28;20193;-77
2023/02/01 00:09:13;;;;;;;14.17;7.90;;;9.60;99.90;;;;;;5055898;28;20597;-77
2023/02/01 00:11:38;;;;;;;13.80;7.63;;;9.60;99.90;;;;;;5051220;28;20173;-77
2023/02/01 00:14:04;;;;;;;16.00;9.60;;;9.50;99.90;;;;;;5051182;28;20633;-77
2023/02/01 00:16:30;;;;;;;14.53;6.83;;;9.50;99.90;;;;;;5050860;28;20209;-77
2023/02/01 00:19:06;;;;;;;10.60;5.20;;;9.50;99.90;;;;;;5049153;28;20598;-77
2023/02/01 00:21:32;;;;;;;10.63;5.85;;;9.40;99.90;;;;;;5049477;28;20546;-77
2023/02/01 00:23:58;;;;;;;14.63;8.60;;;9.40;99.90;;;;;;5049774;28;20268;-77
2023/02/01 00:26:30;;;;;;;16.15;9.02;;;9.30;99.90;;;;;;5050761;28;20928;-77
2023/02/01 00:28:55;;;;;;;16.48;6.50;;;9.20;99.90;;;;;;5050808;28;20165;-77
2023/02/01 00:31:21;;;;;;;8.67;4.63;;;9.20;99.90;;;;;;5050225;28;20242;-77
2023/02/01 00:33:48;;;;;;;12.43;4.60;;;9.20;99.90;;;;;;5050879;28;20567;-77
2023/02/01 00:36:14;;;;;;;10.75;5.35;;;9.20;99.90;;;;;;5049216;28;20673;-77
2023/02/01 00:38:40;;;;;;;9.75;3.55;;;9.10;99.90;;;;;;5049394;28;20612;-77
2023/02/01 00:41:11;;;;;;;7.10;3.40;;;9.10;99.90;;;;;;5050279;28;20169;-77
2023/02/01 00:43:38;;;;;;;10.30;3.90;;;9.10;99.90;;;;;;5051182;28;20195;-77
2023/02/01 00:46:04;;;;;;;11.43;4.00;;;9.00;99.90;;;;;;5036474;28;20205;-78
2023/02/01 00:48:30;;;;;;;8.73;3.47;;;9.00;99.90;;;;;;5049622;28;20183;-78
2023/02/01 00:51:07;;;;;;;7.83;3.43;;;9.00;99.90;;;;;;5032916;28;20662;-77
2023/02/01 00:53:34;;;;;;;11.18;4.32;;;9.00;99.90;;;;;;5049144;28;21160;-77
2023/02/01 00:55:59;;;;;;;9.80;3.75;;;9.00;99.90;;;;;;5032732;28;20574;-78
2023/02/01 00:58:26;;;;;;;10.37;3.80;;;9.00;99.90;;;;;;5049343;28;20173;-77
2023/02/01 01:01:07;;;;;;;7.55;2.60;;;9.10;99.90;;;;;;5031942;28;20583;-77
2023/02/01 01:03:35;;;;;;;10.93;3.40;;;9.10;99.90;;;;;;5049153;28;20248;-77
2023/02/01 01:06:04;;;;;;;11.45;3.22;;;9.10;99.90;;;;;;5049359;28;20213;-78
2023/02/01 01:08:30;;;;;;;7.45;2.88;;;9.10;99.90;;;;;;5032261;28;20222;-78
2023/02/01 01:10:56;;;;;;;8.80;3.27;;;9.10;99.90;;;;;;5049356;28;20177;-78
2023/02/01 01:13:22;;;;;;;7.10;2.00;;;9.10;99.90;;;;;;5032223;28;20584;-78
2023/02/01 01:15:48;;;;;;;7.80;2.95;;;9.10;99.90;;;;;;5032076;28;20209;-78
2023/02/01 01:18:14;;;;;;;7.37;2.30;;;9.20;99.90;;;;;;5050570;28;20161;-78
2023/02/01 01:20:40;;;;;;;9.32;2.28;;;9.20;99.90;;;;;;5048449;28;20212;-78
2023/02/01 01:23:07;;;;;;;4.78;2.30;;;9.20;99.90;;;;;;5020580;28;20180;-77
2023/02/01 01:25:38;;;;;;;5.75;2.50;;;9.20;99.90;;;;;;5050819;28;20195;-78
2023/02/01 01:28:03;;;;;;;7.35;2.88;;;9.20;99.90;;;;;;5032689;28;20237;-78
2023/02/01 01:30:29;;;;;;;8.23;2.73;;;9.20;99.90;;;;;;5032011;28;20696;-78
2023/02/01 01:32:55;;;;;;;8.17;2.60;;;9.20;99.90;;;;;;5052461;28;20963;-78
2023/02/01 01:35:21;;;;;;;10.57;2.70;;;9.20;99.90;;;;;;5052284;28;20216;-78
2023/02/01 01:37:46;;;;;;;7.10;2.00;;;9.20;99.90;;;;;;5052889;28;20281;-78
2023/02/01 01:40:14;;;;;;;6.30;2.17;;;9.20;99.90;;;;;;5035125;28;20188;-78
2023/02/01 01:42:41;;;;;;;9.75;2.90;;;9.20;99.90;;;;;;5035845;28;20165;-78
2023/02/01 01:45:25;;;;;;;9.80;3.28;;;9.20;99.90;;;;;;5035708;28;20188;-78
2023/02/01 01:48:02;;;;;;;7.07;2.15;;;9.10;99.90;;;;;;5036419;28;20172;-78
2023/02/01 01:50:50;;;;;;;7.72;2.45;;;9.10;99.90;;;;;;5052407;28;20177;-78
2023/02/01 01:53:28;;;;;;;6.32;1.77;;;9.00;99.90;;;;;;5051526;28;20172;-78
2023/02/01 01:55:57;;;;;;;6.60;2.35;;;9.00;99.90;;;;;;5035514;28;20295;-78
2023/02/01 01:58:27;;;;;;;4.87;2.00;;;8.90;99.90;;;;;;5053024;28;20280;-77
2023/02/01 02:00:56;;;;;;;4.97;2.47;;;8.90;99.90;;;;;;5039498;28;20618;-77
2023/02/01 02:03:42;;;;;;;10.45;3.08;;;8.80;99.90;;;;;;5033989;28;20297;-77
2023/02/01 02:06:24;;;;;;;6.82;3.00;;;8.80;99.90;;;;;;5052035;28;20280;-78
2023/02/01 02:08:50;;;;;;;8.00;1.73;;;8.80;99.90;;;;;;5034615;28;20184;-78
2023/02/01 02:11:17;;;;;;;6.53;2.27;;;8.80;99.90;;;;;;5051675;28;20813;-78
2023/02/01 02:13:48;;;;;;;6.40;1.70;;;8.80;99.90;;;;;;5034874;28;20235;-78
2023/02/01 02:16:32;;;;;;;5.55;1.50;;;8.80;99.90;;;;;;5035136;28;20204;-78
2023/02/01 02:19:42;;;;;;;6.80;2.10;;;8.80;99.90;;;;;;5051200;28;20169;-78
2023/02/01 02:22:39;;;;;;;7.03;1.35;;;8.80;99.90;;;;;;5034813;28;20176;-78
2023/02/01 02:25:36;;;;;;;6.70;1.60;;;8.80;99.90;;;;;;5051206;28;20271;-78
2023/02/01 02:28:29;;;;;;;8.90;2.38;;;8.80;99.90;;;;;;5035017;28;20231;-77
2023/02/01 02:31:27;;;;;;;11.40;3.20;;;8.80;99.90;;;;;;5034733;28;20173;-78
2023/02/01 02:34:08;;;;;;;9.80;2.38;;;8.80;99.90;;;;;;5035019;28;20230;-78
2023/02/01 02:36:55;;;;;;;13.40;4.88;;;8.80;99.90;;;;;;5053801;28;20216;-77
2023/02/01 02:39:51;;;;;;;5.00;1.80;;;8.90;99.90;;;;;;5057260;28;20172;-77
2023/02/01 02:48:40;;;;;;;6.47;2.65;;;8.90;99.90;;;;;;5072824;28;20181;-77
2023/02/01 03:05:10;;;;;;;10.30;3.00;;;9.00;99.90;;;;;;5041666;28;20184;-76
2023/02/01 03:07:49;;;;;;;8.07;2.20;;;9.00;99.90;;;;;;5043637;28;20179;-76
2023/02/01 03:10:37;;;;;;;6.43;2.72;;;9.00;99.90;;;;;;5058993;28;20577;-76
2023/02/01 03:13:11;;;;;;;11.55;4.22;;;9.00;99.90;;;;;;5040581;28;20218;-76
2023/02/01 03:15:59;;;;;;;8.00;3.08;;;9.00;99.90;;;;;;5056443;28;20734;-76
2023/02/01 03:19:02;;;;;;;6.53;2.22;;;9.00;99.90;;;;;;5058794;28;20173;-76
2023/02/01 03:21:44;;;;;;;9.73;3.10;;;9.00;99.90;;;;;;5056910;28;20187;-76
2023/02/01 03:24:22;;;;;;;9.50;2.97;;;9.00;99.90;;;;;;5039673;28;20612;-76
2023/02/01 03:26:54;;;;;;;9.43;3.03;;;9.00;99.90;;;;;;5038480;28;20203;-76
2023/02/01 03:29:29;;;;;;;5.88;3.60;;;9.00;99.90;;;;;;5039990;28;20648;-76
2023/02/01 03:31:55;;;;;;;10.68;3.70;;;9.00;99.90;;;;;;5057349;28;20173;-76
2023/02/01 03:34:21;;;;;;;9.55;2.42;;;9.00;99.90;;;;;;5040971;28;20677;-76
2023/02/01 03:36:50;;;;;;;8.52;2.90;;;9.10;99.90;;;;;;5041221;28;20641;-76
2023/02/01 03:39:22;;;;;;;10.25;2.85;;;9.10;99.90;;;;;;5039967;28;20177;-77
2023/02/01 03:42:02;;;;;;;10.70;3.55;;;9.00;99.90;;;;;;5053420;28;20173;-77
2023/02/01 03:44:36;;;;;;;10.55;3.10;;;9.00;99.90;;;;;;5055302;28;20175;-76
2023/02/01 03:47:12;;;;;;;8.88;3.70;;;9.00;99.90;;;;;;5045057;28;20216;-76
2023/02/01 03:49:45;;;;;;;10.43;2.58;;;9.00;99.90;;;;;;5060579;28;20176;-76
2023/02/01 03:52:22;;;;;;;11.48;3.03;;;9.00;99.90;;;;;;5057004;28;20177;-76
2023/02/01 03:54:49;;;;;;;7.47;2.92;;;9.00;99.90;;;;;;5055382;28;20231;-77
2023/02/01 03:57:23;;;;;;;16.58;3.80;;;9.00;99.90;;;;;;5057761;28;20624;-77
2023/02/01 03:59:52;;;;;;;8.52;3.33;;;8.90;99.90;;;;;;5054831;28;20230;-76
2023/02/01 04:02:19;;;;;;;9.60;2.95;;;8.90;99.90;;;;;;5019382;28;20173;-77
2023/02/01 04:04:45;;;;;;;7.27;3.10;;;8.90;99.90;;;;;;5054473;28;20252;-76
2023/02/01 04:07:16;;;;;;;10.75;3.53;;;8.80;99.90;;;;;;5038986;28;20599;-76
2023/02/01 04:09:42;;;;;;;11.23;2.97;;;8.80;99.90;;;;;;5043710;28;20177;-76
2023/02/01 04:12:08;;;;;;;8.23;3.00;;;8.80;99.90;;;;;;5061873;28;20850;-76
2023/02/01 04:14:34;;;;;;;9.00;2.80;;;8.90;99.90;;;;;;5042040;28;20734;-76
2023/02/01 04:17:00;;;;;;;7.57;2.93;;;8.90;99.90;;;;;;5043611;28;20230;-76
2023/02/01 04:19:26;;;;;;;5.38;2.15;;;8.90;99.90;;;;;;5059791;28;20582;-76
2023/02/01 04:21:52;;;;;;;7.03;3.20;;;8.90;99.90;;;;;;5066186;28;20165;-76
2023/02/01 04:24:18;;;;;;;7.10;2.80;;;8.90;99.90;;;;;;5064663;28;20572;-76
2023/02/01 04:26:43;;;;;;;13.90;3.57;;;8.90;99.90;;;;;;5069166;28;20284;-77
2023/02/01 04:29:10;;;;;;;6.20;2.40;;;8.90;99.90;;;;;;5072334;28;20165;-77
2023/02/01 04:31:36;;;;;;;10.75;2.40;;;8.90;99.90;;;;;;5070857;28;20153;-77
2023/02/01 04:34:02;;;;;;;7.45;2.78;;;8.90;99.90;;;;;;5068640;28;20531;-76
2023/02/01 04:36:27;;;;;;;10.80;2.93;;;9.00;99.90;;;;;;5062666;28;20223;-77
2023/02/01 04:38:53;;;;;;;7.83;2.70;;;9.00;99.90;;;;;;5062041;28;20602;-77
2023/02/01 04:41:20;;;;;;;17.57;3.30;;;9.00;99.90;;;;;;5061270;28;20173;-77
2023/02/01 04:43:47;;;;;;;14.25;3.10;;;8.90;99.90;;;;;;5060028;28;20185;-77
2023/02/01 04:46:16;;;;;;;7.55;2.63;;;9.00;99.90;;;;;;5057372;28;20194;-77
2023/02/01 04:48:42;;;;;;;10.17;2.77;;;8.90;99.90;;;;;;5061610;28;20315;-76
2023/02/01 04:51:09;;;;;;;8.90;3.13;;;8.90;99.90;;;;;;5064953;28;20579;-77
2023/02/01 04:53:36;;;;;;;11.10;3.40;;;8.90;99.90;;;;;;5048489;28;20188;-77
2023/02/01 04:56:02;;;;;;;5.82;2.58;;;8.80;99.90;;;;;;5068025;28;20219;-77
2023/02/01 04:58:27;;;;;;;8.10;2.60;;;8.80;99.90;;;;;;5065230;28;20517;-76
2023/02/01 05:00:53;;;;;;;11.67;3.23;;;8.70;99.90;;;;;;5061660;28;20889;-76
2023/02/01 05:03:19;;;;;;;14.57;3.53;;;8.60;99.90;;;;;;5062049;28;20268;-77
2023/02/01 05:05:46;;;;;;;11.70;2.50;;;8.60;99.90;;;;;;5059314;28;20197;-76
2023/02/01 05:08:12;;;;;;;11.68;3.10;;;8.50;99.90;;;;;;5065751;28;20607;-77
2023/02/01 05:10:38;;;;;;;11.57;2.50;;;8.50;99.90;;;;;;5060318;28;20180;-76
2023/02/01 05:15:49;;;;;;;7.65;2.58;;;8.40;99.90;;;;;;5064089;28;20204;-76
2023/02/01 05:18:15;;;;;;;12.57;2.53;;;8.30;99.90;;;;;;5062758;28;20661;-77
2023/02/01 05:20:41;;;;;;;10.70;3.00;;;8.30;99.90;;;;;;5058831;28;20310;-76
2023/02/01 05:23:06;;;;;;;9.67;3.80;;;8.20;99.90;;;;;;5057061;28;20181;-76
2023/02/01 05:25:32;;;;;;;8.43;2.40;;;8.30;99.90;;;;;;5056922;28;20279;-76
2023/02/01 05:27:58;;;;;;;6.90;2.13;;;8.20;99.90;;;;;;5039604;28;20286;-77
2023/02/01 05:30:24;;;;;;;8.15;2.80;;;8.20;99.90;;;;;;5057835;28;20268;-76
2023/02/01 05:32:51;;;;;;;13.90;2.57;;;8.10;99.90;;;;;;5056168;28;20201;-76
2023/02/01 05:35:17;;;;;;;6.55;2.15;;;8.10;99.90;;;;;;5057925;28;20254;-76
2023/02/01 05:37:42;;;;;;;13.23;3.93;;;8.10;99.90;;;;;;5058703;28;20173;-76
2023/02/01 05:40:09;;;;;;;8.27;2.10;;;8.00;99.90;;;;;;5059598;28;20168;-76
2023/02/01 05:42:35;;;;;;;9.88;2.33;;;8.00;99.90;;;;;;5071497;28;20174;-78
2023/02/01 05:45:00;;;;;;;6.97;2.40;;;8.00;99.90;;;;;;5076513;28;20161;-77
2023/02/01 05:47:27;;;;;;;13.45;2.60;;;8.00;99.90;;;;;;5074555;28;20175;-77
2023/02/01 05:49:52;;;;;;;11.65;2.28;;;8.00;99.90;;;;;;5071997;28;20200;-77
2023/02/01 05:52:19;;;;;;;9.17;2.70;;;7.90;99.90;;;;;;5073410;28;20184;-77
2023/02/01 05:54:47;;;;;;;9.32;2.60;;;7.90;99.90;;;;;;5074600;28;20239;-77
2023/02/01 05:57:14;;;;;;;11.20;3.25;;;7.90;99.90;;;;;;5076914;28;20177;-78
2023/02/01 05:59:44;;;;;;;16.05;2.65;;;7.90;99.90;;;;;;5076648;28;20201;-77
2023/02/01 06:02:11;;;;;;;10.90;2.10;;;7.90;99.90;;;;;;5076718;28;20181;-77
2023/02/01 06:04:37;;;;;;;9.25;2.60;;;7.80;99.90;;;;;;5077076;28;20189;-77
2023/02/01 06:07:07;;;;;;;6.35;2.22;;;7.90;99.90;;;;;;5078428;28;20198;-78
2023/02/01 06:09:34;;;;;;;10.80;2.20;;;7.80;99.90;;;;;;5076896;28;20165;-77
2023/02/01 06:12:00;;;;;;;9.30;2.53;;;7.80;99.90;;;;;;5077068;28;20176;-77
2023/02/01 06:14:27;;;;;;;10.50;2.53;;;7.80;99.90;;;;;;5076882;28;20205;-77
2023/02/01 06:16:54;;;;;;;9.55;2.78;;;7.80;99.90;;;;;;5075155;28;20188;-77
2023/02/01 06:19:20;;;;;;;10.48;2.67;;;7.80;99.90;;;;;;5064805;28;20659;-77
2023/02/01 06:21:45;;;;;;;9.93;2.70;;;7.80;99.90;;;;;;5070966;28;20193;-77
2023/02/01 06:24:11;;;;;;;8.93;2.53;;;7.80;99.90;;;;;;5072331;28;20169;-77
2023/02/01 06:26:38;;;;;;;12.53;3.17;;;7.80;99.90;;;;;;5056812;28;20176;-77
2023/02/01 06:29:06;;;;;;;8.10;2.50;;;7.80;99.90;;;;;;5074261;28;20177;-77
2023/02/01 06:31:32;;;;;;;13.02;2.90;;;7.80;99.90;;;;;;5075306;28;20204;-77
2023/02/01 06:34:02;;;;;;;8.63;2.63;;;7.80;99.90;;;;;;5057393;28;20173;-78
2023/02/01 06:36:29;;;;;;;14.23;2.47;;;7.80;99.90;;;;;;5051299;28;20204;-77
2023/02/01 06:38:56;;;;;;;8.15;2.83;;;7.80;99.90;;;;;;5051830;28;20227;-77
2023/02/01 06:41:22;;;;;;;10.55;3.85;;;7.80;99.90;;;;;;5051074;28;20231;-77
2023/02/01 06:43:49;;;;;;;13.25;3.33;;;7.80;99.90;;;;;;5051056;28;20276;-77
2023/02/01 06:46:14;;;;;;;12.18;3.00;;;7.90;99.90;;;;;;5052361;28;20189;-77
2023/02/01 06:48:42;;;;;;;12.43;2.47;;;7.90;99.90;;;;;;5051641;28;20184;-77
2023/02/01 06:51:23;;;;;;;11.00;3.37;;;7.90;99.90;;;;;;5050858;28;20184;-77
2023/02/01 06:53:48;;;;;;;15.55;3.45;;;8.00;99.90;;;;;;5052134;28;20633;-77
2023/02/01 06:56:14;;;;;;;6.13;2.00;;;8.00;99.90;;;;;;5050741;28;20212;-77
2023/02/01 06:58:40;;;;;;;12.37;3.07;;;8.00;99.90;;;;;;5054639;28;20169;-77
2023/02/01 07:01:08;;;;;;;8.27;3.80;;;8.10;99.90;;;;;;5051726;28;20257;-77
2023/02/01 07:03:34;;;;;;;10.43;2.60;;;8.10;99.90;;;;;;5052003;28;20259;-77
2023/02/01 07:05:59;;;;;;;8.63;2.60;;;8.20;99.90;;;;;;5052036;28;20280;-77
2023/02/01 07:08:28;;;;;;;7.10;2.03;;;8.20;99.90;;;;;;5050856;28;20173;-77
2023/02/01 07:10:53;;;;;;;14.63;2.90;;;8.30;99.90;;;;;;5050199;28;20169;-77
2023/02/01 07:13:19;;;;;;;12.20;2.70;;;8.30;99.90;;;;;;5050541;28;20201;-77
2023/02/01 07:15:47;;;;;;;12.20;3.97;;;8.30;99.90;;;;;;5051345;28;20232;-77
2023/02/01 07:18:14;;;;;;;9.00;3.30;;;8.40;99.90;;;;;;5059276;28;20177;-79
2023/02/01 07:20:40;;;;;;;9.80;2.45;;;8.40;99.90;;;;;;5054984;28;20263;-80
2023/02/01 07:23:07;;;;;;;5.97;1.70;;;8.40;99.90;;;;;;5040341;28;20637;-80
2023/02/01 07:25:34;;;;;;;18.15;2.63;;;8.40;99.90;;;;;;5064163;28;20189;-80
2023/02/01 07:28:00;;;;;;;8.40;2.03;;;8.50;99.90;;;;;;5062572;28;20176;-80
2023/02/01 07:30:26;;;;;;;7.60;2.80;;;8.50;99.90;;;;;;5058781;28;20264;-80
2023/02/01 07:32:52;;;;;;;9.03;3.50;;;8.50;99.90;;;;;;5052999;28;20177;-80
2023/02/01 07:35:17;;;;;;;13.00;2.93;;;8.50;99.90;;;;;;5056431;28;20262;-80
2023/02/01 07:37:43;;;;;;;18.07;2.63;;;8.60;99.90;;;;;;5051938;28;20169;-78
2023/02/01 07:40:10;;;;;;;9.67;3.17;;;8.60;99.90;;;;;;5051099;28;20176;-78
2023/02/01 07:42:35;;;;;;;9.80;2.72;;;8.60;99.90;;;;;;5050909;28;20173;-78
2023/02/01 07:45:02;;;;;;;8.47;2.57;;;8.60;99.90;;;;;;5051065;28;20177;-78
2023/02/01 07:47:28;;;;;;;11.68;2.55;;;8.60;99.90;;;;;;5049709;28;20185;-78
2023/02/01 07:49:54;;;;;;;15.37;2.50;;;8.70;99.90;;;;;;5050723;28;20614;-79
2023/02/01 07:52:19;;;;;;;12.67;2.57;;;8.70;99.90;;;;;;5051094;28;20169;-79
2023/02/01 07:54:45;;;;;;;15.97;2.60;;;8.70;99.90;;;;;;5051180;28;20292;-81
2023/02/01 07:57:11;;;;;;;13.20;2.93;;;8.70;99.90;;;;;;5050491;28;20196;-81
2023/02/01 08:01:19;;;;;;;14.50;2.50;;;8.70;99.90;;;;;;5051329;28;20173;-81
2023/02/01 08:02:26;;;;;;;14.15;2.72;;;8.70;99.90;;;;;;5050851;28;20256;-81
2023/02/01 08:04:53;;;;;;;11.03;3.10;;;8.70;99.90;;;;;;5050739;28;20276;-81
2023/02/01 08:07:18;;;;;;;11.55;2.90;;;8.70;99.90;;;;;;5058019;28;20175;-81
2023/02/01 08:09:44;;;;;;;9.30;1.90;;;8.70;99.90;;;;;;5053946;28;20204;-81
2023/02/01 08:12:10;;;;;;;8.38;2.10;;;8.70;99.90;;;;;;5053897;28;20345;-81
2023/02/01 08:14:36;;;;;;;12.17;2.37;;;8.80;99.90;;;;;;5049840;28;20249;-81
2023/02/01 08:17:01;;;;;;;11.90;3.00;;;8.80;99.90;;;;;;5049578;28;20193;-80
2023/02/01 08:19:27;;;;;;;12.73;2.40;;;8.80;99.90;;;;;;5049492;28;20561;-82
2023/02/01 08:21:53;;;;;;;9.43;3.33;;;8.80;99.90;;;;;;5032611;28;20251;-81
2023/02/01 08:24:19;;;;;;;8.23;2.13;;;8.80;99.90;;;;;;5033231;28;20930;-81
2023/02/01 08:26:45;;;;;;;8.20;2.10;;;8.80;99.90;;;;;;5050735;28;20848;-81
2023/02/01 08:29:12;;;;;;;11.83;2.60;;;8.80;99.90;;;;;;5049075;28;20188;-80
2023/02/01 08:31:40;;;;;;;6.88;2.10;;;8.70;99.90;;;;;;5049588;28;20184;-80
2023/02/01 08:34:08;;;;;;;8.80;3.03;;;8.70;99.90;;;;;;5050938;28;20180;-81
2023/02/01 08:36:34;;;;;;;9.75;3.05;;;8.70;99.90;;;;;;5016983;28;20295;-81
2023/02/01 08:39:01;;;;;;;12.80;2.72;;;8.70;99.90;;;;;;5049105;28;20231;-80
2023/02/01 08:41:29;;;;;;;9.02;2.70;;;8.80;99.90;;;;;;5051246;28;20169;-81
2023/02/01 08:43:56;;;;;;;9.30;2.38;;;8.80;99.90;;;;;;5053260;28;20279;-81
2023/02/01 08:46:22;;;;;;;15.85;2.72;;;8.80;99.90;;;;;;5054801;28;20185;-81
2023/02/01 08:48:48;;;;;;;12.18;2.40;;;8.80;99.90;;;;;;5057467;28;20268;-80
2023/02/01 08:51:16;;;;;;;13.75;2.92;;;8.80;99.90;;;;;;5058577;28;20197;-80
2023/02/01 08:53:42;;;;;;;7.13;2.65;;;8.90;99.90;;;;;;5062578;28;20180;-80
2023/02/01 08:56:11;;;;;;;8.20;2.80;;;8.90;99.90;;;;;;5054915;28;20212;-80
2023/02/01 08:58:37;;;;;;;11.80;2.63;;;8.90;99.90;;;;;;5053860;28;20576;-80
2023/02/01 09:01:16;;;;;;;10.00;2.92;;;9.00;99.90;;;;;;5054477;28;20168;-80
2023/02/01 09:03:42;;;;;;;10.00;1.90;;;9.10;99.90;;;;;;5054474;28;20629;-80
2023/02/01 09:06:11;;;;;;;9.75;2.33;;;9.20;99.90;;;;;;5054527;28;20599;-80
2023/02/01 09:08:38;;;;;;;14.77;2.47;;;9.30;99.90;;;;;;5052795;28;20177;-80
2023/02/01 09:11:07;;;;;;;10.52;3.00;;;9.40;99.90;;;;;;5054070;28;20264;-80
2023/02/01 09:13:33;;;;;;;11.65;2.97;;;9.40;99.90;;;;;;5054195;28;20176;-80
2023/02/01 09:15:59;;;;;;;9.13;2.50;;;9.50;99.90;;;;;;5054675;28;20232;-79
2023/02/01 09:18:25;;;;;;;7.30;3.10;;;9.60;99.90;;;;;;5053345;28;20671;-80
2023/02/01 09:20:52;;;;;;;9.32;3.17;;;9.60;99.90;;;;;;5052651;28;20576;-80
2023/02/01 09:23:20;;;;;;;6.77;2.50;;;9.80;99.90;;;;;;5052814;28;20196;-80
2023/02/01 09:25:46;;;;;;;12.05;2.17;;;9.90;99.90;;;;;;5054830;28;20204;-80
2023/02/01 09:28:12;;;;;;;13.60;2.88;;;10.00;99.90;;;;;;5055367;28;20188;-80
2023/02/01 09:30:37;;;;;;;14.67;2.63;;;10.10;99.90;;;;;;5052202;28;20181;-80
2023/02/01 09:33:04;;;;;;;11.57;2.60;;;10.00;99.90;;;;;;5052168;28;20602;-79
2023/02/01 09:35:30;;;;;;;12.20;3.75;;;10.10;99.90;;;;;;5052573;28;20217;-79
2023/02/01 09:37:55;;;;;;;9.50;2.70;;;10.10;99.90;;;;;;5053767;28;20687;-80
2023/02/01 09:40:22;;;;;;;7.50;2.53;;;10.20;99.90;;;;;;5052170;28;20586;-81
2023/02/01 09:43:15;;;;;;;13.35;3.38;;;10.30;99.90;;;;;;5050172;28;20204;-81
2023/02/01 09:46:16;;;;;;;12.48;2.63;;;10.30;99.90;;;;;;5050910;28;20199;-81
2023/02/01 09:48:44;;;;;;;8.68;2.40;;;10.30;99.90;;;;;;5050402;28;20249;-81
2023/02/01 09:51:21;;;;;;;16.17;4.20;;;10.40;99.90;;;;;;5050552;28;20592;-80
2023/02/01 09:54:11;;;;;;;9.18;2.58;;;10.60;99.90;;;;;;5050796;28;20180;-80
2023/02/01 09:56:46;;;;;;;8.43;2.63;;;10.60;99.90;;;;;;5052028;28;20243;-80
2023/02/01 09:59:23;;;;;;;13.25;3.35;;;10.70;99.90;;;;;;5053092;28;20241;-80
2023/02/01 10:01:49;;;;;;;10.25;2.67;;;10.70;99.90;;;;;;5053548;28;20218;-78
2023/02/01 10:04:16;;;;;;;8.67;3.40;;;10.70;99.90;;;;;;5056924;28;20660;-78
2023/02/01 10:07:08;;;;;;;14.25;3.30;;;10.80;99.90;;;;;;5053307;28;20197;-77
2023/02/01 10:09:51;;;;;;;13.57;3.90;;;10.80;99.90;;;;;;5051444;28;20264;-78
2023/02/01 10:12:22;;;;;;;10.93;3.17;;;10.80;99.90;;;;;;5052797;28;20599;-78
2023/02/01 10:15:12;;;;;;;13.25;3.35;;;10.90;99.90;;;;;;5051848;28;20254;-78
2023/02/01 10:18:02;;;;;;;22.60;4.32;;;10.90;99.90;;;;;;5053230;28;20195;-78
2023/02/01 10:20:59;;;;;;;9.13;2.53;;;11.00;99.90;;;;;;5051059;28;20172;-78
2023/02/01 10:24:03;;;;;;;9.85;2.60;;;11.00;99.90;;;;;;5018205;28;20661;-78
2023/02/01 10:26:35;;;;;;;15.57;3.78;;;11.10;99.90;;;;;;5034591;28;20204;-78
2023/02/01 10:29:04;;;;;;;14.95;4.75;;;11.10;99.90;;;;;;5051721;28;20165;-79
2023/02/01 10:31:34;;;;;;;11.00;3.67;;;11.10;99.90;;;;;;5051379;28;20208;-77
2023/02/01 10:34:25;;;;;;;11.80;2.65;;;11.10;99.90;;;;;;5052631;28;20173;-79
2023/02/01 10:37:00;;;;;;;12.05;3.60;;;11.10;99.90;;;;;;5053440;28;20204;-78
2023/02/01 10:39:27;;;;;;;12.75;3.13;;;11.10;99.90;;;;;;5055788;28;20183;-79
2023/02/01 10:41:55;;;;;;;9.30;2.37;;;11.10;99.90;;;;;;5054014;28;20633;-79
2023/02/01 10:44:25;;;;;;;10.23;2.67;;;11.10;99.90;;;;;;5059151;28;20575;-78
2023/02/01 10:46:51;;;;;;;5.60;2.22;;;11.10;99.90;;;;;;5061172;28;20193;-78
2023/02/01 10:49:38;;;;;;;8.03;2.47;;;11.20;99.90;;;;;;5051985;28;20645;-78
2023/02/01 10:52:16;;;;;;;14.30;3.97;;;11.20;99.90;;;;;;5050465;28;20653;-78
2023/02/01 10:54:42;;;;;;;12.25;2.50;;;11.20;99.90;;;;;;5052015;28;20575;-78
2023/02/01 10:57:10;;;;;;;7.03;2.80;;;11.30;99.90;;;;;;5050545;28;20204;-77
2023/02/01 10:59:37;;;;;;;9.55;3.05;;;11.40;99.90;;;;;;5051863;28;20637;-77
2023/02/01 11:02:27;;;;;;;10.00;2.55;;;11.50;99.90;;;;;;5052287;28;20177;-79
2023/02/01 11:05:09;;;;;;;10.70;3.03;;;11.60;99.90;;;;;;5051496;28;20176;-77
2023/02/01 11:07:36;;;;;;;15.40;3.28;;;11.80;99.90;;;;;;5047751;28;20181;-78
2023/02/01 11:10:03;;;;;;;10.05;2.55;;;12.00;99.90;;;;;;5036959;28;20184;-78
2023/02/01 11:12:37;;;;;;;17.25;3.80;;;12.00;99.90;;;;;;5045786;28;20209;-78
2023/02/01 11:15:20;;;;;;;7.90;3.10;;;12.10;99.90;;;;;;5051420;28;20836;-79
2023/02/01 11:17:51;;;;;;;6.85;2.65;;;12.00;99.90;;;;;;5053509;28;20613;-77
2023/02/01 11:20:32;;;;;;;10.40;3.35;;;12.00;99.90;;;;;;5051484;28;20187;-77
2023/02/01 11:22:58;;;;;;;11.70;4.57;;;12.00;99.90;;;;;;5034731;28;20256;-78
2023/02/01 11:25:24;;;;;;;11.77;5.13;;;12.10;99.90;;;;;;5051337;28;20192;-78
2023/02/01 11:27:52;;;;;;;10.90;5.60;;;12.00;99.90;;;;;;5050879;28;20181;-78
2023/02/01 11:30:30;;;;;;;10.98;4.82;;;12.00;99.90;;;;;;5050753;28;20171;-78
2023/02/01 11:32:56;;;;;;;11.98;3.70;;;12.00;99.90;;;;;;5050069;28;20172;-79
2023/02/01 11:35:21;;;;;;;10.73;4.30;;;12.00;99.90;;;;;;5051398;28;20208;-77
2023/02/01 11:37:55;;;;;;;12.50;2.87;;;12.00;99.90;;;;;;5050210;28;20607;-78
2023/02/01 11:40:36;;;;;;;10.50;3.80;;;11.90;99.90;;;;;;5033083;28;20598;-78
2023/02/01 11:43:19;;;;;;;10.15;2.75;;;11.90;99.90;;;;;;5051051;28;20173;-78
2023/02/01 11:46:16;;;;;;;11.43;3.35;;;11.80;99.90;;;;;;5050470;28;20200;-78
2023/02/01 11:48:43;;;;;;;8.27;2.10;;;11.80;99.90;;;;;;5049663;28;20637;-78
2023/02/01 11:51:29;;;;;;;13.18;2.55;;;11.80;99.90;;;;;;5051165;28;20173;-78
2023/02/01 11:54:37;;;;;;;8.52;2.70;;;11.70;99.90;;;;;;5049217;28;20177;-78
2023/02/01 11:57:41;;;;;;;8.10;2.20;;;11.70;99.90;;;;;;5021430;28;20244;-79
2023/02/01 12:00:36;;;;;;;10.18;2.60;;;11.70;99.90;;;;;;5050709;28;20256;-79
2023/02/01 12:03:18;;;;;;;9.60;2.00;;;11.60;99.90;;;;;;5050156;28;20511;-78
2023/02/01 12:06:08;;;;;;;10.52;2.42;;;11.60;99.90;;;;;;5050827;28;20228;-78
2023/02/01 12:08:48;;;;;;;14.93;2.75;;;11.60;99.90;;;;;;5049105;28;20176;-77
2023/02/01 12:11:42;;;;;;;13.52;3.33;;;11.60;99.90;;;;;;5049912;28;20169;-78
2023/02/01 12:14:49;;;;;;;9.55;2.85;;;11.60;99.90;;;;;;5050820;28;20169;-79
2023/02/01 12:18:11;;;;;;;10.05;2.85;;;11.50;99.90;;;;;;4999919;28;20213;-79
2023/02/01 12:20:56;;;;;;;13.27;2.10;;;11.40;99.90;;;;;;5021433;28;20204;-79
2023/02/01 12:24:06;;;;;;;12.07;2.72;;;11.30;99.90;;;;;;5058695;28;20184;-80
2023/02/01 12:26:41;;;;;;;6.40;1.92;;;11.30;99.90;;;;;;4979572;28;20202;-79
2023/02/01 12:29:30;;;;;;;11.65;3.45;;;11.20;99.90;;;;;;4977640;28;20237;-79
2023/02/01 12:32:14;;;;;;;5.30;2.25;;;11.20;99.90;;;;;;5031975;28;20292;-77
2023/02/01 12:35:22;;;;;;;6.13;2.40;;;11.20;99.90;;;;;;5051124;28;20280;-78
2023/02/01 12:38:05;;;;;;;11.40;3.63;;;11.20;99.90;;;;;;5052911;28;20184;-81
2023/02/01 12:40:55;;;;;;;13.20;3.55;;;11.20;99.90;;;;;;5067826;28;20181;-80
2023/02/01 12:43:36;;;;;;;17.80;2.88;;;11.20;99.90;;;;;;5070816;28;20173;-81
2023/02/01 12:46:16;;;;;;;7.75;2.97;;;11.30;99.90;;;;;;5065294;28;20197;-81
2023/02/01 12:49:11;;;;;;;9.30;3.90;;;11.30;99.90;;;;;;5083506;28;20216;-81
2023/02/01 12:51:39;;;;;;;15.05;4.32;;;11.30;99.90;;;;;;5074224;28;20180;-81
2023/02/01 12:54:14;;;;;;;14.20;6.57;;;11.40;99.90;;;;;;5075316;28;20172;-80
2023/02/01 12:56:55;;;;;;;12.32;5.35;;;11.40;99.90;;;;;;5089052;28;20215;-80
2023/02/01 12:59:38;;;;;;;12.30;4.15;;;11.30;99.90;;;;;;5095780;28;20176;-80
2023/02/01 13:02:12;;;;;;;15.30;2.95;;;11.30;99.90;;;;;;5093846;28;20171;-78
2023/02/01 13:04:43;;;;;;;10.20;3.15;;;11.30;99.90;;;;;;5067983;28;20180;-77
2023/02/01 13:07:18;;;;;;;10.93;4.63;;;11.20;99.90;;;;;;5069328;28;20192;-78
2023/02/01 13:09:57;;;;;;;9.30;3.10;;;11.10;99.90;;;;;;5055385;28;20230;-78
2023/02/01 13:12:34;;;;;;;12.48;4.45;;;11.10;99.90;;;;;;5049392;28;20214;-77
2023/02/01 13:15:22;;;;;;;13.18;3.42;;;11.10;99.90;;;;;;5050271;28;20209;-77
2023/02/01 13:17:51;;;;;;;9.40;2.80;;;11.00;99.90;;;;;;5048926;28;20185;-78
2023/02/01 13:20:33;;;;;;;14.25;3.28;;;11.00;99.90;;;;;;5046008;28;20200;-78
2023/02/01 13:23:15;;;;;;;10.05;3.40;;;11.00;99.90;;;;;;5029409;28;20173;-78
2023/02/01 13:25:51;;;;;;;11.63;3.80;;;10.90;99.90;;;;;;5029077;28;20190;-77
2023/02/01 13:28:39;;;;;;;10.88;3.40;;;10.90;99.90;;;;;;5049841;28;20192;-77
2023/02/01 13:31:32;;;;;;;7.93;2.05;;;10.90;99.90;;;;;;5033525;28;20192;-78
2023/02/01 13:34:35;;;;;;;7.30;2.50;;;10.90;99.90;;;;;;5032814;28;20273;-78
2023/02/01 13:37:21;;;;;;;7.05;2.20;;;10.80;99.90;;;;;;5034318;28;20197;-77
2023/02/01 13:40:09;;;;;;;9.52;2.15;;;10.80;99.90;;;;;;5034308;28;20166;-78